Time;durP1;ratioP1;P1;durP2;ratioP2;P2;SDS_P1;SDS_P2;PMS_P1;PMS_P2;Temp;Humidity;BMP_temperature;BMP_pressure;BME280_temperature;BME280_humidity;BME280_pressure;Samples;Min_cycle;Max_cycle;Signal;HPM_P1;HPM_P2
2023/03/12 00:00:58;;;;;;;9.50;6.50;;;;;;;;;;5133550;27;20506;-77
2023/03/12 00:03:28;;;;;;;6.10;5.57;;;;;;;;;;5133181;27;20480;-77
2023/03/12 00:06:00;;;;;;;7.13;6.30;;;;;;;;;;5133192;27;20592;-77
2023/03/12 00:08:27;;;;;;;10.07;6.17;;;;;;;;;;5133576;27;20453;-77
2023/03/12 00:11:01;;;;;;;9.97;6.20;;;;;;;;;;5133372;27;20450;-77
2023/03/12 00:13:29;;;;;;;9.77;6.00;;;;;;;;;;5132680;27;20989;-75
2023/03/12 00:16:03;;;;;;;8.23;7.03;;;;;;;;;;5133051;27;20462;-76
2023/03/12 00:18:31;;;;;;;6.90;5.90;;;;;;;;;;5111963;27;20485;-78
2023/03/12 00:20:59;;;;;;;9.07;6.60;;;;;;;;;;5111730;27;20459;-76
2023/03/12 00:23:27;;;;;;;8.87;6.60;;;;;;;;;;5125405;27;20460;-77
2023/03/12 00:25:56;;;;;;;8.03;6.87;;;;;;;;;;5132577;27;20431;-77
2023/03/12 00:28:33;;;;;;;7.13;6.50;;;;;;;;;;5134110;27;20961;-77
2023/03/12 00:31:34;;;;;;;6.93;6.43;;;;;;;;;;5133707;27;20441;-77
2023/03/12 00:34:15;;;;;;;7.07;6.20;;;;;;;;;;5120226;27;20557;-77
2023/03/12 00:36:45;;;;;;;10.43;6.37;;;;;;;;;;5132780;27;20457;-76
2023/03/12 00:39:19;;;;;;;7.60;6.90;;;;;;;;;;5132357;27;20446;-77
2023/03/12 00:41:57;;;;;;;10.00;7.50;;;;;;;;;;5132717;27;20450;-77
2023/03/12 00:44:27;;;;;;;9.37;7.37;;;;;;;;;;5133063;27;20442;-77
2023/03/12 00:46:56;;;;;;;9.30;7.57;;;;;;;;;;5138090;27;20929;-77
2023/03/12 00:49:30;;;;;;;10.03;8.57;;;;;;;;;;5138648;27;20460;-77
2023/03/12 00:52:03;;;;;;;7.20;6.50;;;;;;;;;;5137024;27;20425;-76
2023/03/12 00:54:31;;;;;;;10.30;7.10;;;;;;;;;;5136323;27;20502;-78
2023/03/12 00:57:01;;;;;;;8.77;7.87;;;;;;;;;;5137108;27;20453;-77
2023/03/12 00:59:29;;;;;;;8.50;7.40;;;;;;;;;;5136954;27;20822;-77
2023/03/12 01:02:03;;;;;;;12.40;7.83;;;;;;;;;;5137104;27;20437;-75
2023/03/12 01:04:37;;;;;;;8.87;7.30;;;;;;;;;;5136124;27;20538;-78
2023/03/12 01:07:11;;;;;;;11.90;7.53;;;;;;;;;;5137291;27;20944;-76
2023/03/12 01:09:40;;;;;;;14.77;8.17;;;;;;;;;;5136892;27;20949;-76
2023/03/12 01:12:09;;;;;;;11.70;8.20;;;;;;;;;;5135191;27;20884;-77
2023/03/12 01:14:37;;;;;;;9.03;7.90;;;;;;;;;;5134697;27;20873;-78
2023/03/12 01:17:09;;;;;;;9.60;8.80;;;;;;;;;;5134913;27;21258;-78
2023/03/12 01:19:46;;;;;;;9.40;8.50;;;;;;;;;;5134949;27;20454;-76
2023/03/12 01:22:17;;;;;;;11.53;8.60;;;;;;;;;;5135429;27;21132;-77
2023/03/12 01:24:49;;;;;;;11.00;8.97;;;;;;;;;;5135486;27;20473;-76
2023/03/12 01:27:19;;;;;;;11.70;8.67;;;;;;;;;;5135323;27;20450;-76
2023/03/12 01:29:51;;;;;;;10.80;8.70;;;;;;;;;;5135453;27;20957;-74
2023/03/12 01:32:21;;;;;;;10.90;8.53;;;;;;;;;;5135436;27;20465;-77
2023/03/12 01:34:55;;;;;;;10.30;8.60;;;;;;;;;;5134760;27;20573;-77
2023/03/12 01:37:23;;;;;;;10.77;8.60;;;;;;;;;;5134807;27;20450;-76
2023/03/12 01:39:53;;;;;;;9.53;8.47;;;;;;;;;;5134990;27;20449;-76
2023/03/12 01:42:21;;;;;;;10.13;8.97;;;;;;;;;;5136079;27;20436;-76
2023/03/12 01:44:53;;;;;;;13.70;9.77;;;;;;;;;;5135718;27;20886;-77
2023/03/12 01:47:22;;;;;;;11.43;9.17;;;;;;;;;;5136707;27;20450;-77
2023/03/12 01:49:52;;;;;;;13.10;10.67;;;;;;;;;;5137657;27;20438;-77
2023/03/12 01:52:21;;;;;;;11.00;8.80;;;;;;;;;;5138256;27;20457;-76
2023/03/12 01:54:51;;;;;;;10.10;9.10;;;;;;;;;;5140049;27;20474;-75
2023/03/12 01:57:23;;;;;;;15.60;10.10;;;;;;;;;;5139883;27;20461;-76
2023/03/12 01:59:53;;;;;;;12.57;10.30;;;;;;;;;;5143717;27;20426;-77
2023/03/12 02:02:30;;;;;;;12.83;10.40;;;;;;;;;;5142036;27;20537;-76
2023/03/12 02:05:05;;;;;;;13.20;9.77;;;;;;;;;;5141682;27;20480;-76
2023/03/12 02:07:36;;;;;;;12.23;9.27;;;;;;;;;;5141141;27;21126;-75
2023/03/12 02:10:07;;;;;;;11.67;10.57;;;;;;;;;;5140683;27;20458;-76
2023/03/12 02:12:43;;;;;;;12.30;9.93;;;;;;;;;;5140444;27;20468;-77
2023/03/12 02:15:25;;;;;;;11.17;9.90;;;;;;;;;;5141692;27;20529;-77
2023/03/12 02:20:49;;;;;;;11.50;10.30;;;;;;;;;;5154416;27;20430;-77
2023/03/12 02:23:22;;;;;;;12.23;9.87;;;;;;;;;;5149621;27;20445;-76
2023/03/12 02:25:52;;;;;;;12.60;10.13;;;;;;;;;;5149933;27;20495;-76
2023/03/12 02:28:28;;;;;;;11.23;10.03;;;;;;;;;;5150220;27;20454;-76
2023/03/12 02:30:59;;;;;;;12.73;10.67;;;;;;;;;;5147022;27;20445;-76
2023/03/12 02:33:28;;;;;;;11.53;10.33;;;;;;;;;;5145630;27;20553;-76
2023/03/12 02:35:56;;;;;;;11.33;10.13;;;;;;;;;;5142916;27;20453;-77
2023/03/12 02:38:35;;;;;;;11.90;10.47;;;;;;;;;;5141241;27;20446;-76
2023/03/12 02:41:06;;;;;;;13.73;10.57;;;;;;;;;;5140491;27;20458;-77
2023/03/12 02:43:35;;;;;;;11.90;10.57;;;;;;;;;;5140241;27;20493;-77
2023/03/12 02:46:08;;;;;;;11.80;10.70;;;;;;;;;;5140995;27;20479;-76
2023/03/12 02:48:37;;;;;;;12.97;10.40;;;;;;;;;;5141201;27;20450;-77
2023/03/12 02:51:05;;;;;;;11.70;10.50;;;;;;;;;;5143851;27;20499;-76
2023/03/12 02:53:38;;;;;;;11.63;10.47;;;;;;;;;;5141460;27;20489;-77
2023/03/12 02:56:17;;;;;;;15.80;10.67;;;;;;;;;;5140200;27;20456;-76
2023/03/12 02:58:45;;;;;;;12.77;11.60;;;;;;;;;;5141067;27;20434;-77
2023/03/12 03:01:13;;;;;;;15.67;10.70;;;;;;;;;;5139940;27;20791;-77
2023/03/12 03:03:43;;;;;;;12.33;10.40;;;;;;;;;;5139944;27;20495;-76
2023/03/12 03:06:15;;;;;;;12.40;11.20;;;;;;;;;;5139392;27;20458;-76
2023/03/12 03:08:47;;;;;;;11.70;10.50;;;;;;;;;;5139637;27;20453;-76
2023/03/12 03:11:28;;;;;;;12.50;10.90;;;;;;;;;;5140158;27;20877;-77
2023/03/12 03:13:57;;;;;;;12.90;11.10;;;;;;;;;;5138171;27;20474;-76
2023/03/12 03:16:29;;;;;;;14.23;12.50;;;;;;;;;;5136174;27;20446;-77
2023/03/12 03:19:07;;;;;;;14.27;11.40;;;;;;;;;;5135838;27;20503;-76
2023/03/12 03:21:40;;;;;;;12.80;11.07;;;;;;;;;;5136273;27;20537;-77
2023/03/12 03:24:13;;;;;;;13.00;11.70;;;;;;;;;;5136067;27;20514;-76
2023/03/12 03:26:55;;;;;;;12.10;10.87;;;;;;;;;;5137820;27;20480;-78
2023/03/12 03:29:24;;;;;;;15.50;10.77;;;;;;;;;;5138827;27;20453;-76
2023/03/12 03:31:55;;;;;;;11.60;10.60;;;;;;;;;;5141856;27;20442;-78
2023/03/12 03:34:24;;;;;;;12.07;10.87;;;;;;;;;;5141667;27;20492;-77
2023/03/12 03:36:54;;;;;;;11.80;10.47;;;;;;;;;;5138727;27;20450;-77
2023/03/12 03:39:22;;;;;;;12.23;11.03;;;;;;;;;;5137898;27;20443;-76
2023/03/12 03:41:54;;;;;;;12.87;10.10;;;;;;;;;;5137544;27;20937;-77
2023/03/12 03:44:30;;;;;;;14.00;10.53;;;;;;;;;;5136976;27;20548;-78
2023/03/12 03:46:59;;;;;;;16.53;11.93;;;;;;;;;;5136232;27;20452;-76
2023/03/12 03:49:30;;;;;;;13.50;10.73;;;;;;;;;;5136876;27;20430;-76
2023/03/12 03:52:02;;;;;;;11.43;9.83;;;;;;;;;;5137585;27;20442;-76
2023/03/12 03:57:23;;;;;;;15.17;11.20;;;;;;;;;;5136396;27;20913;-77
2023/03/12 03:59:57;;;;;;;11.43;10.27;;;;;;;;;;5136058;27;20444;-76
2023/03/12 04:02:25;;;;;;;11.43;10.23;;;;;;;;;;5137397;27;20445;-76
2023/03/12 04:04:58;;;;;;;12.60;11.17;;;;;;;;;;5136568;27;20466;-76
2023/03/12 04:07:26;;;;;;;14.13;11.40;;;;;;;;;;5136542;27;20483;-76
2023/03/12 04:09:58;;;;;;;11.93;10.83;;;;;;;;;;5137495;27;20643;-77
2023/03/12 04:12:44;;;;;;;11.70;10.20;;;;;;;;;;5137982;27;20476;-76
2023/03/12 04:15:19;;;;;;;13.50;10.43;;;;;;;;;;5142054;27;20492;-75
2023/03/12 04:17:47;;;;;;;11.27;10.13;;;;;;;;;;5121498;27;20854;-76
2023/03/12 04:20:21;;;;;;;23.13;11.00;;;;;;;;;;5115831;27;20447;-76
2023/03/12 04:22:49;;;;;;;12.20;11.00;;;;;;;;;;5117224;27;20465;-76
2023/03/12 04:25:18;;;;;;;11.63;10.43;;;;;;;;;;5117541;28;20434;-76
2023/03/12 04:27:50;;;;;;;11.60;10.50;;;;;;;;;;5117042;28;20453;-77
2023/03/12 04:30:19;;;;;;;13.13;11.00;;;;;;;;;;5116722;27;20454;-75
2023/03/12 04:32:52;;;;;;;12.33;10.23;;;;;;;;;;5116407;28;20435;-77
2023/03/12 04:35:27;;;;;;;12.83;10.20;;;;;;;;;;5116188;27;20481;-77
2023/03/12 04:37:55;;;;;;;11.30;10.20;;;;;;;;;;5116170;28;20787;-75
2023/03/12 04:40:23;;;;;;;12.50;10.50;;;;;;;;;;5116658;28;20446;-76
2023/03/12 04:43:05;;;;;;;11.67;10.43;;;;;;;;;;5116063;27;20447;-76
2023/03/12 04:46:02;;;;;;;14.90;9.93;;;;;;;;;;5115682;28;20435;-76
2023/03/12 04:48:47;;;;;;;10.50;9.50;;;;;;;;;;5114316;27;21012;-76
2023/03/12 04:51:22;;;;;;;10.60;9.47;;;;;;;;;;5116017;27;20800;-77
2023/03/12 04:54:00;;;;;;;14.60;10.90;;;;;;;;;;5114642;28;20483;-77
2023/03/12 04:56:31;;;;;;;11.90;9.57;;;;;;;;;;5114331;28;21001;-76
2023/03/12 04:59:08;;;;;;;10.43;8.73;;;;;;;;;;5115306;28;20949;-77
2023/03/12 05:01:52;;;;;;;13.10;9.83;;;;;;;;;;5115487;28;20515;-75
2023/03/12 05:04:23;;;;;;;14.00;9.87;;;;;;;;;;5115748;28;20488;-76
2023/03/12 05:06:55;;;;;;;12.67;9.80;;;;;;;;;;5116152;27;20942;-76
2023/03/12 05:09:28;;;;;;;10.90;9.37;;;;;;;;;;5115574;27;20458;-76
2023/03/12 05:12:02;;;;;;;11.33;10.17;;;;;;;;;;5114937;27;20447;-77
2023/03/12 05:14:38;;;;;;;10.33;9.43;;;;;;;;;;5120447;27;21000;-76
2023/03/12 05:17:06;;;;;;;11.67;9.43;;;;;;;;;;5135350;27;20445;-77
2023/03/12 05:19:34;;;;;;;11.77;10.73;;;;;;;;;;5135549;27;20517;-75
2023/03/12 05:22:04;;;;;;;10.73;9.53;;;;;;;;;;5136301;27;20434;-76
2023/03/12 05:24:32;;;;;;;10.93;9.63;;;;;;;;;;5136829;27;20473;-75
2023/03/12 05:27:00;;;;;;;11.63;10.43;;;;;;;;;;5136249;27;20468;-76
2023/03/12 05:29:34;;;;;;;10.70;9.70;;;;;;;;;;5135904;27;20462;-76
2023/03/12 05:32:07;;;;;;;11.67;9.47;;;;;;;;;;5135749;27;20971;-75
2023/03/12 05:34:38;;;;;;;11.43;10.23;;;;;;;;;;5135218;27;20469;-75
2023/03/12 05:37:07;;;;;;;12.17;9.80;;;;;;;;;;5135837;27;20924;-74
2023/03/12 05:39:45;;;;;;;13.53;9.10;;;;;;;;;;5135275;27;20446;-77
2023/03/12 05:42:13;;;;;;;10.90;9.77;;;;;;;;;;5135214;27;20446;-75
2023/03/12 05:44:45;;;;;;;10.17;9.17;;;;;;;;;;5134945;27;20542;-77
2023/03/12 05:47:29;;;;;;;10.90;9.37;;;;;;;;;;5135911;27;21103;-77
2023/03/12 05:49:57;;;;;;;14.70;9.37;;;;;;;;;;5135030;27;20549;-76
2023/03/12 05:52:26;;;;;;;11.40;9.53;;;;;;;;;;5135779;27;20454;-77
2023/03/12 05:54:57;;;;;;;13.07;10.20;;;;;;;;;;5135093;27;20474;-75
2023/03/12 05:57:31;;;;;;;13.20;9.87;;;;;;;;;;5135302;27;20540;-76
2023/03/12 05:59:59;;;;;;;10.70;9.60;;;;;;;;;;5135755;27;20470;-77
2023/03/12 06:02:30;;;;;;;9.77;8.87;;;;;;;;;;5135058;27;20499;-75
2023/03/12 06:05:04;;;;;;;11.33;10.30;;;;;;;;;;5135073;27;20466;-77
2023/03/12 06:07:34;;;;;;;10.10;9.10;;;;;;;;;;5135559;27;20503;-76
2023/03/12 06:10:11;;;;;;;10.53;9.57;;;;;;;;;;5134555;27;20430;-76
2023/03/12 06:12:42;;;;;;;10.10;9.07;;;;;;;;;;5132782;27;20454;-76
2023/03/12 06:15:14;;;;;;;16.47;10.33;;;;;;;;;;5133074;27;20466;-77
2023/03/12 06:17:54;;;;;;;10.93;9.50;;;;;;;;;;5133027;27;20437;-76
2023/03/12 06:20:26;;;;;;;10.50;9.70;;;;;;;;;;5132673;27;20970;-76
2023/03/12 06:22:54;;;;;;;10.07;8.80;;;;;;;;;;5132514;27;20539;-75
2023/03/12 06:25:31;;;;;;;11.40;9.60;;;;;;;;;;5133284;27;20460;-77
2023/03/12 06:28:00;;;;;;;11.27;10.20;;;;;;;;;;5133777;27;20453;-75
2023/03/12 06:30:36;;;;;;;10.67;9.60;;;;;;;;;;5134472;27;20533;-77
2023/03/12 06:33:11;;;;;;;14.00;10.90;;;;;;;;;;5132586;27;20548;-77
2023/03/12 06:35:41;;;;;;;9.87;9.07;;;;;;;;;;5134213;27;20469;-76
2023/03/12 06:38:11;;;;;;;10.97;9.87;;;;;;;;;;5132933;27;20876;-76
2023/03/12 06:40:42;;;;;;;12.77;11.37;;;;;;;;;;5134717;27;21154;-77
2023/03/12 06:43:13;;;;;;;11.87;10.57;;;;;;;;;;5135723;27;20462;-76
2023/03/12 06:45:49;;;;;;;11.30;10.20;;;;;;;;;;5136381;27;20505;-76
2023/03/12 06:48:26;;;;;;;11.60;10.43;;;;;;;;;;5136451;27;20450;-78
2023/03/12 06:50:57;;;;;;;11.13;9.93;;;;;;;;;;5135256;27;20472;-77
2023/03/12 06:53:30;;;;;;;11.33;10.33;;;;;;;;;;5136719;27;20912;-76
2023/03/12 06:56:00;;;;;;;13.50;10.40;;;;;;;;;;5146554;27;20466;-75
2023/03/12 06:58:32;;;;;;;12.50;10.30;;;;;;;;;;5142390;27;20460;-75
2023/03/12 07:01:03;;;;;;;12.03;10.40;;;;;;;;;;5144999;27;20450;-78
2023/03/12 07:03:38;;;;;;;12.50;11.20;;;;;;;;;;5146123;27;20470;-75
2023/03/12 07:06:06;;;;;;;11.57;10.27;;;;;;;;;;5145846;27;20478;-77
2023/03/12 07:08:36;;;;;;;13.67;10.97;;;;;;;;;;5145498;27;20446;-77
2023/03/12 07:11:10;;;;;;;11.87;10.77;;;;;;;;;;5144200;27;20456;-76
2023/03/12 07:13:41;;;;;;;12.07;10.90;;;;;;;;;;5136634;27;20513;-77
2023/03/12 07:16:09;;;;;;;11.37;10.20;;;;;;;;;;5142484;27;20473;-76
2023/03/12 07:18:38;;;;;;;10.87;9.87;;;;;;;;;;5125199;27;20465;-76
2023/03/12 07:21:12;;;;;;;10.90;9.90;;;;;;;;;;5127514;28;20446;-76
2023/03/12 07:23:40;;;;;;;11.77;10.33;;;;;;;;;;5126031;28;20486;-76
2023/03/12 07:26:08;;;;;;;18.10;12.20;;;;;;;;;;5122733;28;20442;-77
2023/03/12 07:28:37;;;;;;;17.13;11.80;;;;;;;;;;5116037;28;20439;-77
2023/03/12 07:31:08;;;;;;;15.57;11.30;;;;;;;;;;5114683;27;20583;-76
2023/03/12 07:33:46;;;;;;;13.57;10.97;;;;;;;;;;5114035;27;20505;-76
2023/03/12 07:36:28;;;;;;;13.73;12.10;;;;;;;;;;5112871;28;20470;-76
2023/03/12 07:38:56;;;;;;;11.83;10.83;;;;;;;;;;5114517;28;20500;-76
2023/03/12 07:41:28;;;;;;;13.40;10.97;;;;;;;;;;5117128;27;20454;-77
2023/03/12 07:44:00;;;;;;;12.57;11.47;;;;;;;;;;5116416;27;20463;-76
2023/03/12 07:46:33;;;;;;;11.90;10.70;;;;;;;;;;5115665;28;20431;-77
2023/03/12 07:49:19;;;;;;;11.63;10.43;;;;;;;;;;5117898;28;20799;-77
2023/03/12 07:51:47;;;;;;;11.90;10.73;;;;;;;;;;5119771;28;20503;-76
2023/03/12 07:54:27;;;;;;;13.17;11.30;;;;;;;;;;5114775;27;20482;-77
2023/03/12 07:57:04;;;;;;;12.40;10.43;;;;;;;;;;5119101;28;20466;-76
2023/03/12 07:59:36;;;;;;;15.20;12.00;;;;;;;;;;5118541;27;20454;-77
2023/03/12 08:02:05;;;;;;;11.37;10.33;;;;;;;;;;5117684;28;20575;-76
2023/03/12 08:04:45;;;;;;;11.40;10.30;;;;;;;;;;5116998;27;20488;-76
2023/03/12 08:07:16;;;;;;;11.10;10.10;;;;;;;;;;5118143;27;20470;-76
2023/03/12 08:09:49;;;;;;;13.90;11.83;;;;;;;;;;5117878;28;20515;-77
2023/03/12 08:12:21;;;;;;;51.13;33.73;;;;;;;;;;5118086;27;20460;-76
2023/03/12 08:14:52;;;;;;;18.73;11.07;;;;;;;;;;5117771;28;20537;-75
2023/03/12 08:17:29;;;;;;;11.13;10.03;;;;;;;;;;5129583;27;20465;-77
2023/03/12 08:20:12;;;;;;;11.43;10.27;;;;;;;;;;5141175;27;20463;-75
2023/03/12 08:22:40;;;;;;;11.63;10.40;;;;;;;;;;5138871;27;20439;-75
2023/03/12 08:25:09;;;;;;;9.70;8.87;;;;;;;;;;5138654;27;20505;-78
2023/03/12 08:27:39;;;;;;;10.20;9.17;;;;;;;;;;5138074;27;20450;-75
2023/03/12 08:30:07;;;;;;;10.77;9.70;;;;;;;;;;5137998;27;20464;-76
2023/03/12 08:32:37;;;;;;;9.93;9.03;;;;;;;;;;5137182;27;20499;-77
2023/03/12 08:35:10;;;;;;;15.03;10.27;;;;;;;;;;5138261;27;20488;-78
2023/03/12 08:37:40;;;;;;;11.57;9.10;;;;;;;;;;5138043;27;20516;-77
2023/03/12 08:40:13;;;;;;;11.10;10.00;;;;;;;;;;5138358;27;20479;-76
2023/03/12 08:42:41;;;;;;;10.37;9.27;;;;;;;;;;5137873;27;20834;-77
2023/03/12 08:45:14;;;;;;;13.50;10.10;;;;;;;;;;5138100;27;20456;-77
2023/03/12 08:47:46;;;;;;;11.60;10.40;;;;;;;;;;5138418;27;20487;-77
2023/03/12 08:50:21;;;;;;;10.57;9.40;;;;;;;;;;5139948;27;20446;-75
2023/03/12 08:52:49;;;;;;;10.40;9.40;;;;;;;;;;5139006;27;21056;-77
2023/03/12 08:55:23;;;;;;;10.23;9.30;;;;;;;;;;5139863;27;20527;-76
2023/03/12 08:57:51;;;;;;;10.57;9.57;;;;;;;;;;5138751;27;20473;-78
2023/03/12 09:00:19;;;;;;;13.00;11.80;;;;;;;;;;5138371;27;20969;-78
2023/03/12 09:02:56;;;;;;;14.17;10.37;;;;;;;;;;5138170;27;20494;-79
2023/03/12 09:05:28;;;;;;;15.03;10.90;;;;;;;;;;5139569;27;20457;-78
2023/03/12 09:07:56;;;;;;;10.97;9.97;;;;;;;;;;5138666;27;20445;-77
2023/03/12 09:10:26;;;;;;;12.57;11.37;;;;;;;;;;5138031;27;20442;-76
2023/03/12 09:12:53;;;;;;;12.23;10.93;;;;;;;;;;5138215;27;20529;-76
2023/03/12 09:15:22;;;;;;;11.37;10.23;;;;;;;;;;5138702;27;20433;-77
2023/03/12 09:17:54;;;;;;;11.20;10.20;;;;;;;;;;5123182;27;20482;-77
2023/03/12 09:20:38;;;;;;;10.93;9.53;;;;;;;;;;5116713;27;20458;-77
2023/03/12 09:23:14;;;;;;;13.30;10.37;;;;;;;;;;5121660;27;21220;-78
2023/03/12 09:25:49;;;;;;;13.93;10.97;;;;;;;;;;5122738;27;20446;-76
2023/03/12 09:28:25;;;;;;;10.47;9.47;;;;;;;;;;5117909;28;20450;-76
2023/03/12 09:31:00;;;;;;;11.30;9.87;;;;;;;;;;5119639;27;20497;-76
2023/03/12 09:33:29;;;;;;;15.20;13.67;;;;;;;;;;5119112;28;21155;-77
2023/03/12 09:36:01;;;;;;;14.63;13.07;;;;;;;;;;5116491;27;20536;-78
2023/03/12 09:38:30;;;;;;;12.50;11.23;;;;;;;;;;5116718;28;20489;-77
2023/03/12 09:41:07;;;;;;;12.70;11.50;;;;;;;;;;5129728;27;20499;-77
2023/03/12 09:43:40;;;;;;;11.87;10.70;;;;;;;;;;5136346;27;20493;-78
2023/03/12 09:46:12;;;;;;;12.30;11.00;;;;;;;;;;5137243;27;20437;-76
2023/03/12 09:48:43;;;;;;;13.57;12.20;;;;;;;;;;5137827;27;20426;-76
2023/03/12 09:51:15;;;;;;;12.53;11.37;;;;;;;;;;5137317;27;20454;-78
2023/03/12 09:53:46;;;;;;;11.77;10.60;;;;;;;;;;5137048;27;20481;-77
2023/03/12 09:56:18;;;;;;;11.83;10.57;;;;;;;;;;5136764;27;20501;-78
2023/03/12 09:58:49;;;;;;;11.80;10.70;;;;;;;;;;5136445;27;20450;-76
2023/03/12 10:01:37;;;;;;;13.03;11.73;;;;;;;;;;5137324;27;20518;-76
2023/03/12 10:04:11;;;;;;;13.17;11.90;;;;;;;;;;5136527;27;20489;-78
2023/03/12 10:06:44;;;;;;;12.30;11.10;;;;;;;;;;5136735;27;20446;-76
2023/03/12 10:09:26;;;;;;;13.90;11.27;;;;;;;;;;5135459;27;20730;-76
2023/03/12 10:11:59;;;;;;;12.53;10.83;;;;;;;;;;5135584;27;20446;-77
2023/03/12 10:14:33;;;;;;;13.00;11.50;;;;;;;;;;5135796;27;20491;-76
2023/03/12 10:17:12;;;;;;;12.60;11.30;;;;;;;;;;5126803;27;20478;-76
2023/03/12 10:19:55;;;;;;;12.90;11.60;;;;;;;;;;5113906;28;20430;-77
2023/03/12 10:22:30;;;;;;;13.23;11.00;;;;;;;;;;5123492;27;20450;-75
2023/03/12 10:25:02;;;;;;;12.10;11.00;;;;;;;;;;5134183;27;20530;-76
2023/03/12 10:27:42;;;;;;;13.50;12.30;;;;;;;;;;5134447;27;20856;-77
2023/03/12 10:30:22;;;;;;;12.60;11.03;;;;;;;;;;5135657;27;20528;-78
2023/03/12 10:33:00;;;;;;;11.33;10.30;;;;;;;;;;5135203;27;20446;-77
2023/03/12 10:35:32;;;;;;;11.70;10.60;;;;;;;;;;5135662;27;20457;-78
2023/03/12 10:38:11;;;;;;;11.00;10.00;;;;;;;;;;5135065;27;20476;-77
2023/03/12 10:40:47;;;;;;;11.87;10.77;;;;;;;;;;5135556;27;20503;-77
2023/03/12 10:43:29;;;;;;;11.40;10.30;;;;;;;;;;5134476;27;20557;-77
2023/03/12 10:46:04;;;;;;;7.83;7.03;;;;;;;;;;5134922;27;20515;-77
2023/03/12 10:48:34;;;;;;;4.70;4.30;;;;;;;;;;5134268;27;20441;-78
2023/03/12 10:51:16;;;;;;;4.83;4.43;;;;;;;;;;5134808;27;20891;-76
2023/03/12 10:53:46;;;;;;;6.50;4.10;;;;;;;;;;5134424;27;21032;-77
2023/03/12 10:56:20;;;;;;;3.83;3.53;;;;;;;;;;5134427;27;20442;-76
2023/03/12 10:58:50;;;;;;;3.30;2.90;;;;;;;;;;5133652;27;20442;-75
2023/03/12 11:01:20;;;;;;;2.60;2.50;;;;;;;;;;5134348;27;20438;-78
2023/03/12 11:03:53;;;;;;;3.23;2.97;;;;;;;;;;5133203;27;20538;-77
2023/03/12 11:06:31;;;;;;;3.10;2.90;;;;;;;;;;5132794;27;20490;-77
2023/03/12 11:09:07;;;;;;;3.10;2.80;;;;;;;;;;5134135;27;20459;-77
2023/03/12 11:11:39;;;;;;;3.10;2.43;;;;;;;;;;5134528;27;20453;-77
2023/03/12 11:14:17;;;;;;;2.43;2.33;;;;;;;;;;5133865;27;20462;-77
2023/03/12 11:16:46;;;;;;;4.60;2.60;;;;;;;;;;5128244;27;20496;-77
2023/03/12 11:19:27;;;;;;;2.40;2.30;;;;;;;;;;5113898;28;20451;-77
2023/03/12 11:22:01;;;;;;;2.70;2.50;;;;;;;;;;5114044;27;20455;-78
2023/03/12 11:24:36;;;;;;;4.90;2.40;;;;;;;;;;5115050;27;20856;-78
2023/03/12 11:27:06;;;;;;;2.77;2.57;;;;;;;;;;5114968;27;20474;-77
2023/03/12 11:29:38;;;;;;;2.93;2.70;;;;;;;;;;5116690;28;20488;-79
2023/03/12 11:32:12;;;;;;;2.13;2.03;;;;;;;;;;5120438;28;21077;-76
2023/03/12 11:34:40;;;;;;;2.77;2.57;;;;;;;;;;5118686;27;20471;-76
2023/03/12 11:37:12;;;;;;;1.70;1.60;;;;;;;;;;5118390;28;21005;-77
2023/03/12 11:39:51;;;;;;;1.70;1.60;;;;;;;;;;5117220;28;20926;-77
2023/03/12 11:42:29;;;;;;;2.80;1.30;;;;;;;;;;5118746;28;20466;-77
2023/03/12 11:45:04;;;;;;;4.60;4.03;;;;;;;;;;5118637;28;20450;-76
2023/03/12 11:47:43;;;;;;;1.87;1.70;;;;;;;;;;5120040;28;20454;-79
2023/03/12 11:50:17;;;;;;;2.80;1.50;;;;;;;;;;5121931;27;20507;-76
2023/03/12 11:52:53;;;;;;;1.80;1.60;;;;;;;;;;5120520;27;20853;-78
2023/03/12 11:55:25;;;;;;;2.20;1.60;;;;;;;;;;5121499;27;20989;-76
2023/03/12 11:57:59;;;;;;;2.13;1.50;;;;;;;;;;5119286;27;20574;-78
2023/03/12 12:00:33;;;;;;;1.43;1.33;;;;;;;;;;5118750;27;20487;-78
2023/03/12 12:03:28;;;;;;;1.53;1.43;;;;;;;;;;5118673;28;20408;-77
2023/03/12 12:08:54;;;;;;;1.43;1.33;;;;;;;;;;5116688;27;20795;-77
2023/03/12 12:11:38;;;;;;;4.60;1.03;;;;;;;;;;5116231;28;20431;-78
2023/03/12 12:14:16;;;;;;;1.20;1.00;;;;;;;;;;5113643;27;20954;-78
2023/03/12 12:16:48;;;;;;;1.27;1.17;;;;;;;;;;5120750;27;20454;-78
2023/03/12 12:19:27;;;;;;;2.30;1.20;;;;;;;;;;5137592;27;20449;-77
2023/03/12 12:22:13;;;;;;;1.03;1.00;;;;;;;;;;5136812;27;20454;-76
2023/03/12 12:24:47;;;;;;;1.50;1.40;;;;;;;;;;5126925;27;20469;-78
2023/03/12 12:27:20;;;;;;;2.50;1.50;;;;;;;;;;5139873;27;20444;-79
2023/03/12 12:29:57;;;;;;;1.70;1.50;;;;;;;;;;5140601;27;20538;-76
2023/03/12 12:32:28;;;;;;;1.17;1.07;;;;;;;;;;5138974;27;20461;-76
2023/03/12 12:35:08;;;;;;;1.90;1.30;;;;;;;;;;5137339;27;20500;-79
2023/03/12 12:37:45;;;;;;;1.00;1.00;;;;;;;;;;5136224;27;20576;-80
2023/03/12 12:40:17;;;;;;;2.30;1.20;;;;;;;;;;5138509;28;20442;-78
2023/03/12 12:42:53;;;;;;;2.73;1.47;;;;;;;;;;5139212;27;20453;-79
2023/03/12 12:45:26;;;;;;;1.97;1.17;;;;;;;;;;5142023;27;20441;-77
2023/03/12 12:47:55;;;;;;;4.17;1.50;;;;;;;;;;5140652;27;20475;-77
2023/03/12 12:50:25;;;;;;;2.90;1.43;;;;;;;;;;5139251;27;20510;-77
2023/03/12 12:52:55;;;;;;;3.00;1.50;;;;;;;;;;5142289;27;20465;-78
2023/03/12 12:55:26;;;;;;;3.80;1.77;;;;;;;;;;5139273;27;20450;-77
2023/03/12 12:57:57;;;;;;;1.50;1.10;;;;;;;;;;5138205;27;20499;-77
2023/03/12 13:00:31;;;;;;;1.97;1.50;;;;;;;;;;5138223;27;20525;-78
2023/03/12 13:02:59;;;;;;;3.00;1.13;;;;;;;;;;5137413;27;20875;-79
2023/03/12 13:05:28;;;;;;;3.70;1.33;;;;;;;;;;5138294;27;20509;-79
2023/03/12 13:07:57;;;;;;;1.53;1.37;;;;;;;;;;5139652;27;20528;-77
2023/03/12 13:10:41;;;;;;;3.20;1.40;;;;;;;;;;5137619;27;20433;-77
2023/03/12 13:13:20;;;;;;;3.50;1.50;;;;;;;;;;5137798;27;20487;-77
2023/03/12 13:15:54;;;;;;;3.67;1.40;;;;;;;;;;5137783;27;20460;-76
2023/03/12 13:18:30;;;;;;;3.73;1.70;;;;;;;;;;5138070;27;20474;-76
2023/03/12 13:21:16;;;;;;;2.43;1.97;;;;;;;;;;5137519;27;20453;-77
2023/03/12 13:23:49;;;;;;;3.03;1.43;;;;;;;;;;5137868;27;20450;-77
2023/03/12 13:26:21;;;;;;;2.47;1.73;;;;;;;;;;5139206;27;20446;-77
2023/03/12 13:29:01;;;;;;;2.73;1.70;;;;;;;;;;5138182;27;20538;-76
2023/03/12 13:31:44;;;;;;;4.97;1.50;;;;;;;;;;5138975;27;20453;-76
2023/03/12 13:34:32;;;;;;;4.67;2.70;;;;;;;;;;5139448;27;20461;-76
2023/03/12 13:37:01;;;;;;;4.77;1.80;;;;;;;;;;5141579;27;20454;-77
2023/03/12 13:39:32;;;;;;;3.53;1.90;;;;;;;;;;5142137;27;20426;-77
2023/03/12 13:42:00;;;;;;;2.03;1.50;;;;;;;;;;5142287;27;20481;-75
2023/03/12 13:44:37;;;;;;;4.63;2.50;;;;;;;;;;5142421;27;20502;-78
2023/03/12 13:47:06;;;;;;;4.17;2.30;;;;;;;;;;5145009;27;20655;-76
2023/03/12 13:49:41;;;;;;;3.53;2.17;;;;;;;;;;5140738;27;20454;-76
2023/03/12 13:52:20;;;;;;;3.30;1.90;;;;;;;;;;5141857;27;20419;-77
2023/03/12 13:54:49;;;;;;;2.60;2.03;;;;;;;;;;5141492;27;20496;-75
2023/03/12 13:57:26;;;;;;;4.30;2.00;;;;;;;;;;5141862;27;20517;-77
2023/03/12 14:00:00;;;;;;;3.87;2.20;;;;;;;;;;5141672;27;20477;-78
2023/03/12 14:02:32;;;;;;;4.40;1.80;;;;;;;;;;5141125;27;20454;-76
2023/03/12 14:05:05;;;;;;;3.03;1.97;;;;;;;;;;5141236;27;20472;-76
2023/03/12 14:07:41;;;;;;;3.83;1.73;;;;;;;;;;5140247;27;20495;-78
2023/03/12 14:10:14;;;;;;;3.10;2.20;;;;;;;;;;5139520;27;20925;-76
2023/03/12 14:12:46;;;;;;;4.00;2.00;;;;;;;;;;5140773;27;20454;-77
2023/03/12 14:15:23;;;;;;;3.73;1.30;;;;;;;;;;5141312;27;20452;-76
2023/03/12 14:17:57;;;;;;;3.13;1.80;;;;;;;;;;5142681;27;20927;-77
2023/03/12 14:20:25;;;;;;;3.40;1.40;;;;;;;;;;5143353;27;20486;-78
2023/03/12 14:22:57;;;;;;;3.83;1.40;;;;;;;;;;5141609;27;20454;-75
2023/03/12 14:25:29;;;;;;;3.03;1.40;;;;;;;;;;5142829;27;20815;-76
2023/03/12 14:27:58;;;;;;;3.10;1.57;;;;;;;;;;5141511;27;20464;-76
2023/03/12 14:30:34;;;;;;;2.63;1.50;;;;;;;;;;5140239;27;20434;-76
2023/03/12 14:33:06;;;;;;;3.80;1.90;;;;;;;;;;5138014;27;20537;-75
2023/03/12 14:35:38;;;;;;;2.27;1.40;;;;;;;;;;5137899;27;20506;-75
2023/03/12 14:38:10;;;;;;;3.27;1.83;;;;;;;;;;5138838;27;20488;-75
2023/03/12 14:40:39;;;;;;;3.93;1.97;;;;;;;;;;5139056;27;20450;-76
2023/03/12 14:43:20;;;;;;;5.20;1.73;;;;;;;;;;5138033;27;20473;-77
2023/03/12 14:45:53;;;;;;;6.53;2.33;;;;;;;;;;5138409;27;20937;-77
2023/03/12 14:48:24;;;;;;;5.20;1.63;;;;;;;;;;5138527;27;20495;-76
2023/03/12 14:50:52;;;;;;;1.90;1.20;;;;;;;;;;5138916;27;20450;-75
2023/03/12 14:53:22;;;;;;;5.07;1.70;;;;;;;;;;5138104;27;20823;-75
2023/03/12 14:55:58;;;;;;;2.60;1.53;;;;;;;;;;5137301;27;20831;-75
2023/03/12 14:58:31;;;;;;;3.83;1.60;;;;;;;;;;5135228;27;20473;-75
2023/03/12 15:01:02;;;;;;;5.80;1.60;;;;;;;;;;5134468;27;20511;-77
2023/03/12 15:03:32;;;;;;;5.63;1.30;;;;;;;;;;5133958;27;20873;-76
2023/03/12 15:06:00;;;;;;;6.70;1.90;;;;;;;;;;5133275;27;20468;-76
2023/03/12 15:08:28;;;;;;;2.53;1.60;;;;;;;;;;5133981;27;20795;-76
2023/03/12 15:10:57;;;;;;;2.87;1.33;;;;;;;;;;5134572;27;20450;-75